Time;durP1;ratioP1;P1;durP2;ratioP2;P2;SDS_P1;SDS_P2;PMS_P1;PMS_P2;Temp;Humidity;BMP_temperature;BMP_pressure;BME280_temperature;BME280_humidity;BME280_pressure;Samples;Min_cycle;Max_cycle;Signal;HPM_P1;HPM_P2
2023/02/17 00:05:14;;;;;;;188.30;105.70;;;77.40;2227.20;;;;;;4944767;29;20078;-81
2023/02/17 00:15:02;;;;;;;113.78;63.92;;;77.40;2227.20;;;;;;4948125;29;20534;-84
2023/02/17 00:18:23;;;;;;;105.63;62.58;;;77.60;2227.20;;;;;;4931393;29;20042;-85
2023/02/17 00:20:49;;;;;;;104.78;64.60;;;77.70;2227.20;;;;;;4918108;29;20090;-80
2023/02/17 00:32:40;;;;;;;102.88;63.20;;;77.60;2227.20;;;;;;4918648;29;20055;-83
2023/02/17 08:25:44;;;;;;;78.28;45.00;;;103.30;2227.20;;;;;;4976932;28;20517;-85
2023/02/17 08:28:56;;;;;;;83.13;50.83;;;128.00;2252.80;;;;;;4936374;29;20049;-87
2023/02/17 08:54:36;;;;;;;79.50;49.28;;;154.10;2252.80;;;;;;4915540;29;20126;-88
2023/02/17 08:57:02;;;;;;;89.80;56.92;;;154.30;2252.80;;;;;;4898574;29;20029;-86
2023/02/17 08:59:30;;;;;;;90.25;50.35;;;154.50;2252.80;;;;;;4922900;29;20031;-86
2023/02/17 09:01:56;;;;;;;93.72;57.25;;;179.30;2252.80;;;;;;4955741;29;20051;-86
2023/02/17 09:04:22;;;;;;;103.47;67.40;;;179.40;2252.80;;;;;;4938812;29;20070;-89
2023/02/17 09:06:51;;;;;;;67.22;42.40;;;179.60;2252.80;;;;;;4938638;29;20023;-89
2023/02/17 09:09:21;;;;;;;92.18;63.97;;;179.70;2252.80;;;;;;4947848;29;20106;-88
2023/02/17 09:11:48;;;;;;;64.03;42.38;;;179.80;2252.80;;;;;;4956210;29;20368;-88
2023/02/17 09:14:14;;;;;;;61.55;39.15;;;179.90;2252.80;;;;;;4953685;29;20066;-88
2023/02/17 09:16:40;;;;;;;56.45;36.47;;;204.90;2252.80;;;;;;4938500;29;20031;-88
2023/02/17 09:19:06;;;;;;;50.83;31.13;;;205.00;2252.80;;;;;;4938299;29;20497;-85
2023/02/17 09:21:31;;;;;;;53.78;32.85;;;205.20;2252.80;;;;;;4938216;29;20386;-87
2023/02/17 09:23:57;;;;;;;46.20;30.75;;;205.30;2252.80;;;;;;4937540;29;20055;-86
2023/02/17 09:26:23;;;;;;;37.58;22.65;;;205.50;2252.80;;;;;;4953809;29;20034;-86
2023/02/17 09:28:49;;;;;;;43.47;26.30;;;205.70;2252.80;;;;;;4954486;29;20039;-85
2023/02/17 09:31:20;;;;;;;44.08;29.40;;;230.40;2252.80;;;;;;4938753;29;20027;-86
2023/02/17 09:33:46;;;;;;;48.97;28.40;;;230.50;2252.80;;;;;;4954316;29;20027;-86
2023/02/17 09:36:15;;;;;;;40.30;27.90;;;230.60;2252.80;;;;;;4954611;29;20122;-85
2023/02/17 09:38:42;;;;;;;39.97;25.58;;;230.70;2252.80;;;;;;4954408;29;20039;-85
2023/02/17 09:41:43;;;;;;;39.88;22.80;;;230.80;2252.80;;;;;;4938364;29;20490;-86
2023/02/17 09:44:23;;;;;;;44.58;29.45;;;230.90;2252.80;;;;;;4954564;29;20062;-85
2023/02/17 09:47:09;;;;;;;38.88;22.52;;;231.00;2252.80;;;;;;4938292;29;20458;-86
2023/02/17 09:49:43;;;;;;;30.40;19.10;;;230.90;2252.80;;;;;;4937574;29;20031;-87
2023/02/17 09:52:19;;;;;;;38.95;23.42;;;231.20;2252.80;;;;;;4954683;29;20023;-86
2023/02/17 09:55:03;;;;;;;37.30;24.77;;;256.00;2252.80;;;;;;4953683;29;20118;-89
2023/02/17 09:57:41;;;;;;;32.50;18.98;;;256.10;2252.80;;;;;;4954472;28;20039;-86
2023/02/17 10:00:12;;;;;;;29.90;20.17;;;256.20;2252.80;;;;;;4958641;28;20444;-87
2023/02/17 10:03:04;;;;;;;34.72;22.67;;;256.10;2252.80;;;;;;4969370;28;20065;-86
2023/02/17 10:05:38;;;;;;;27.20;18.53;;;256.10;2252.80;;;;;;4960375;28;20347;-88
2023/02/17 10:08:36;;;;;;;27.92;18.13;;;231.30;2252.80;;;;;;4968697;28;20537;-85
2023/02/17 10:11:17;;;;;;;25.98;19.10;;;256.10;2252.80;;;;;;4968319;28;20050;-85
2023/02/17 10:13:45;;;;;;;36.67;24.67;;;256.30;2252.80;;;;;;4947216;28;20480;-84
2023/02/17 10:16:22;;;;;;;34.25;22.95;;;256.40;2252.80;;;;;;4984815;28;20026;-83
2023/02/17 10:19:09;;;;;;;33.05;20.85;;;256.30;2252.80;;;;;;4970816;28;20034;-86
2023/02/17 10:21:45;;;;;;;34.92;20.33;;;256.50;2252.80;;;;;;4972392;28;20061;-84
2023/02/17 10:24:10;;;;;;;35.08;20.50;;;256.90;2252.80;;;;;;4964972;28;20061;-85
2023/02/17 10:26:39;;;;;;;31.65;20.90;;;281.90;2278.40;;;;;;4964557;28;20480;-85
2023/02/17 10:29:13;;;;;;;27.83;18.10;;;282.00;2278.40;;;;;;4971961;28;20030;-83
2023/02/17 10:31:53;;;;;;;26.52;18.00;;;282.10;2278.40;;;;;;4956488;29;20023;-89
2023/02/17 10:34:33;;;;;;;28.88;19.95;;;282.40;2278.40;;;;;;4957007;29;20043;-87
2023/02/17 10:37:20;;;;;;;26.45;18.13;;;282.50;2278.40;;;;;;4958630;29;20042;-87
2023/02/17 10:39:49;;;;;;;29.70;19.45;;;307.30;2304.00;;;;;;4957002;29;20170;-86
2023/02/17 10:42:24;;;;;;;25.05;16.45;;;307.30;2304.00;;;;;;4957399;29;20027;-87
2023/02/17 10:44:52;;;;;;;23.13;15.18;;;307.40;2304.00;;;;;;4957204;29;20074;-87
2023/02/17 10:47:19;;;;;;;22.50;15.20;;;307.70;2304.00;;;;;;4957440;29;20035;-87
2023/02/17 10:49:50;;;;;;;25.80;16.30;;;307.80;2304.00;;;;;;4959197;28;20033;-91
2023/02/17 10:52:29;;;;;;;25.60;16.58;;;307.80;2201.60;;;;;;4954282;28;20030;-87
2023/02/17 10:55:01;;;;;;;29.75;18.38;;;307.70;2227.20;;;;;;4951823;28;20493;-86
2023/02/17 10:57:36;;;;;;;23.13;16.30;;;307.70;2227.20;;;;;;4959830;28;20129;-86
2023/02/17 11:00:04;;;;;;;24.58;13.88;;;307.80;2227.20;;;;;;4959846;28;20039;-86
2023/02/17 11:02:41;;;;;;;25.30;15.40;;;307.80;2201.60;;;;;;4958851;28;20031;-86
2023/02/17 11:05:07;;;;;;;33.63;21.40;;;308.10;2150.40;;;;;;4960317;28;20026;-86
2023/02/17 11:07:42;;;;;;;23.17;15.02;;;333.00;2176.00;;;;;;4977517;28;20066;-85
2023/02/17 11:10:36;;;;;;;40.15;26.25;;;333.10;2150.40;;;;;;4959297;28;20548;-82
2023/02/17 11:13:04;;;;;;;31.90;24.20;;;333.40;2124.80;;;;;;4960424;28;20034;-84
2023/02/17 11:15:43;;;;;;;44.08;29.73;;;333.50;2124.80;;;;;;4960217;28;20027;-84
2023/02/17 11:18:18;;;;;;;35.90;24.70;;;333.30;2099.20;;;;;;4956983;28;20046;-84
2023/02/17 11:20:45;;;;;;;30.45;20.48;;;333.50;2073.60;;;;;;4975859;28;20069;-84
2023/02/17 11:23:14;;;;;;;37.05;26.08;;;333.60;2073.60;;;;;;4946472;28;20114;-84
2023/02/17 11:25:41;;;;;;;27.38;19.02;;;358.40;2048.00;;;;;;4971482;28;20603;-83
2023/02/17 11:28:13;;;;;;;21.02;14.48;;;358.50;2048.00;;;;;;4969792;28;20034;-83
2023/02/17 11:30:47;;;;;;;24.23;16.52;;;358.60;2022.40;;;;;;4963531;28;20045;-83
2023/02/17 11:33:16;;;;;;;21.00;14.23;;;358.70;2022.40;;;;;;4947313;28;20117;-82
2023/02/17 11:35:52;;;;;;;21.40;15.77;;;358.90;1996.80;;;;;;4988355;28;20025;-81
2023/02/17 11:38:38;;;;;;;26.50;17.55;;;359.00;1996.80;;;;;;4971317;28;20038;-81
2023/02/17 11:41:06;;;;;;;26.52;16.80;;;359.00;1996.80;;;;;;4961840;28;20034;-83
2023/02/17 11:43:33;;;;;;;27.60;20.33;;;359.20;1971.20;;;;;;4965340;28;20049;-83
2023/02/17 11:46:15;;;;;;;27.90;18.08;;;;;;;;;;4968525;28;20085;-83
2023/02/17 11:48:50;;;;;;;20.20;14.82;;;;;;;;;;4974235;28;20525;-81
2023/02/17 11:51:16;;;;;;;20.35;13.55;;;;;;;;;;4947614;28;20033;-82
2023/02/17 11:53:45;;;;;;;18.48;13.55;;;;;;;;;;4970193;28;20027;-82
2023/02/17 11:56:25;;;;;;;25.90;19.40;;;410.10;1843.20;;;;;;4969920;28;20022;-81
2023/02/17 11:59:00;;;;;;;29.02;17.40;;;410.30;1792.00;;;;;;4979174;28;20122;-81
2023/02/17 12:01:50;;;;;;;24.60;16.83;;;410.50;1817.60;;;;;;4989757;28;20474;-81
2023/02/17 12:04:16;;;;;;;22.90;15.73;;;435.30;1843.20;;;;;;4987938;28;20034;-82
2023/02/17 12:07:10;;;;;;;26.45;16.33;;;435.50;1766.40;;;;;;4962197;28;20022;-81
2023/02/17 12:09:59;;;;;;;26.35;17.98;;;;;;;;;;4932050;29;20031;-80
2023/02/17 12:12:58;;;;;;;24.98;15.85;;;435.90;1766.40;;;;;;4965523;28;20031;-81
2023/02/17 12:15:42;;;;;;;29.25;19.38;;;435.90;1868.80;;;;;;4948972;28;20022;-80
2023/02/17 12:18:08;;;;;;;20.10;15.20;;;;;;;;;;4966437;28;20031;-80
2023/02/17 12:20:52;;;;;;;24.40;14.70;;;460.90;1740.80;;;;;;4972592;28;20076;-82
2023/02/17 12:23:24;;;;;;;26.27;17.45;;;461.10;1766.40;;;;;;4947021;28;20023;-81
2023/02/17 12:25:56;;;;;;;26.60;17.02;;;461.40;1740.80;;;;;;4968948;28;20023;-82
2023/02/17 12:28:33;;;;;;;18.20;13.23;;;461.30;1689.60;;;;;;4970555;28;20034;-82
2023/02/17 12:31:11;;;;;;;23.52;13.82;;;461.40;1715.20;;;;;;4959383;28;20454;-82
2023/02/17 12:33:48;;;;;;;26.85;17.95;;;461.40;1664.00;;;;;;4958267;28;20023;-82
2023/02/17 12:36:17;;;;;;;54.55;33.95;;;461.60;1715.20;;;;;;4957994;28;20466;-81
2023/02/17 12:38:48;;;;;;;35.58;20.60;;;486.40;1689.60;;;;;;4957813;28;20134;-80
2023/02/17 12:41:49;;;;;;;23.95;16.33;;;486.50;1715.20;;;;;;4958293;28;20461;-81
2023/02/17 12:44:21;;;;;;;30.13;18.50;;;486.60;1664.00;;;;;;4917301;28;20031;-81
2023/02/17 12:46:52;;;;;;;29.70;20.10;;;486.60;1638.40;;;;;;4973286;28;20093;-81
2023/02/17 12:49:44;;;;;;;30.98;18.40;;;486.70;1638.40;;;;;;4989010;28;20034;-81
2023/02/17 12:52:18;;;;;;;;;;;486.80;1664.00;;;;;;4959484;28;20058;-81
2023/02/17 12:54:47;;;;;;;41.17;22.85;;;486.90;1664.00;;;;;;4970197;28;19910;-82
2023/02/17 12:57:31;;;;;;;31.20;19.13;;;487.00;1664.00;;;;;;4961008;28;20038;-82
2023/02/17 12:59:58;;;;;;;27.02;16.58;;;487.10;1638.40;;;;;;4980333;28;20035;-84
2023/02/17 13:02:25;;;;;;;22.88;15.68;;;486.80;1612.80;;;;;;4956039;28;20034;-82
2023/02/17 13:04:58;;;;;;;31.92;20.23;;;486.90;1664.00;;;;;;4972052;28;20026;-84
2023/02/17 13:07:40;;;;;;;34.47;23.30;;;487.00;1638.40;;;;;;4964276;28;20031;-83
2023/02/17 13:10:35;;;;;;;25.35;17.08;;;487.10;1664.00;;;;;;4958138;28;20027;-83
2023/02/17 13:13:24;;;;;;;27.52;19.30;;;487.10;1638.40;;;;;;4978445;28;20085;-83
2023/02/17 13:16:01;;;;;;;30.52;22.10;;;487.10;1664.00;;;;;;4967596;28;20023;-82
2023/02/17 13:18:30;;;;;;;27.85;18.08;;;487.30;1664.00;;;;;;4971717;28;20030;-84
2023/02/17 13:20:56;;;;;;;36.45;24.80;;;;;;;;;;4978128;28;20058;-85
2023/02/17 13:23:27;;;;;;;40.50;27.35;;;;;;;;;;4976875;28;20113;-82
2023/02/17 13:26:15;;;;;;;43.53;30.13;;;512.10;1664.00;;;;;;4994641;28;20046;-83
2023/02/17 13:28:41;;;;;;;38.33;27.33;;;;;;;;;;4976879;28;20038;-83
2023/02/17 13:31:12;;;;;;;42.75;25.13;;;;;;;;;;4977402;28;20027;-83
2023/02/17 13:33:54;;;;;;;47.38;32.15;;;487.10;1689.60;;;;;;4975389;28;20497;-83
2023/02/17 13:36:27;;;;;;;28.50;19.70;;;487.00;1638.40;;;;;;4974326;28;20466;-83
2023/02/17 13:39:00;;;;;;;38.53;23.80;;;487.00;1638.40;;;;;;4956687;28;20478;-83
2023/02/17 13:41:28;;;;;;;23.75;17.73;;;487.00;1612.80;;;;;;4957810;28;20040;-83
2023/02/17 13:43:53;;;;;;;24.00;16.55;;;486.90;1612.80;;;;;;4957761;28;20058;-83
2023/02/17 13:46:25;;;;;;;35.47;24.60;;;487.00;1664.00;;;;;;4957088;28;20030;-83
2023/02/17 13:49:05;;;;;;;175.47;111.97;;;487.00;1664.00;;;;;;4957362;28;20549;-82
2023/02/17 13:51:32;;;;;;;148.75;94.35;;;487.10;1664.00;;;;;;4957621;28;20368;-82
2023/02/17 13:54:08;;;;;;;57.25;37.08;;;487.10;1638.40;;;;;;4974139;28;20467;-81
2023/02/17 13:56:34;;;;;;;45.28;30.95;;;487.00;1638.40;;;;;;4957523;28;20386;-81
2023/02/17 13:59:17;;;;;;;34.22;23.17;;;486.80;1638.40;;;;;;4957315;28;20035;-81
2023/02/17 14:01:44;;;;;;;22.60;14.40;;;486.90;1664.00;;;;;;4974658;28;20090;-82
2023/02/17 14:04:37;;;;;;;19.25;15.23;;;486.60;1638.40;;;;;;4958288;28;20027;-81
2023/02/17 14:07:04;;;;;;;21.50;15.48;;;486.60;1638.40;;;;;;4956397;28;20442;-81
2023/02/17 14:09:32;;;;;;;28.58;17.50;;;486.50;1638.40;;;;;;4960833;28;20031;-82
2023/02/17 14:12:03;;;;;;;22.05;14.18;;;486.50;1664.00;;;;;;4960801;28;20031;-83
2023/02/17 14:14:32;;;;;;;17.77;13.95;;;486.50;1664.00;;;;;;4960665;28;20031;-82
2023/02/17 14:17:07;;;;;;;23.13;15.63;;;461.70;1664.00;;;;;;4960450;28;20085;-83
2023/02/17 14:19:47;;;;;;;23.42;16.20;;;461.50;1664.00;;;;;;4960844;28;20037;-83
2023/02/17 14:22:27;;;;;;;27.88;16.90;;;461.20;1689.60;;;;;;4960522;28;20059;-83
2023/02/17 14:25:27;;;;;;;34.75;20.08;;;460.80;1740.80;;;;;;4960624;28;20093;-82
2023/02/17 14:27:52;;;;;;;28.10;18.33;;;435.70;1740.80;;;;;;4909000;28;20123;-82
2023/02/17 14:30:37;;;;;;;27.05;18.83;;;435.50;1843.20;;;;;;4977855;28;20030;-83
2023/02/17 14:33:06;;;;;;;37.53;22.67;;;435.20;1766.40;;;;;;4960461;28;20031;-83
2023/02/17 14:35:32;;;;;;;39.50;26.80;;;410.50;1792.00;;;;;;4960291;28;20451;-79
2023/02/17 14:38:18;;;;;;;29.65;21.13;;;410.30;1792.00;;;;;;4960398;28;20027;-80
2023/02/17 14:40:44;;;;;;;48.83;29.77;;;409.90;1792.00;;;;;;4990840;28;20030;-80
2023/02/17 14:43:10;;;;;;;40.90;27.05;;;410.00;1817.60;;;;;;4962884;28;20034;-80
2023/02/17 14:45:35;;;;;;;47.13;30.17;;;409.90;1817.60;;;;;;4975092;28;20031;-81
2023/02/17 14:48:01;;;;;;;59.47;36.28;;;409.80;1843.20;;;;;;4959634;28;20031;-80
2023/02/17 14:50:27;;;;;;;41.78;28.90;;;409.70;1817.60;;;;;;4970194;28;20031;-81
2023/02/17 14:52:53;;;;;;;45.05;28.65;;;384.70;1792.00;;;;;;4964201;28;20108;-82
2023/02/17 14:55:32;;;;;;;58.80;38.40;;;409.60;1843.20;;;;;;4975576;28;20030;-82
2023/02/17 14:57:58;;;;;;;36.00;25.10;;;384.90;1817.60;;;;;;4967008;28;20030;-82
2023/02/17 15:00:24;;;;;;;35.53;23.27;;;384.90;1817.60;;;;;;4967401;28;20035;-82
2023/02/17 15:02:51;;;;;;;38.13;25.52;;;384.70;1843.20;;;;;;4995217;28;20355;-82
2023/02/17 15:05:17;;;;;;;46.45;30.60;;;384.70;1843.20;;;;;;4963233;28;20100;-82
2023/02/17 15:07:43;;;;;;;58.60;38.38;;;384.60;1843.20;;;;;;4973470;28;20065;-82
2023/02/17 15:10:26;;;;;;;55.92;35.95;;;384.50;1843.20;;;;;;4968128;28;20035;-82
2023/02/17 15:12:53;;;;;;;53.53;33.10;;;384.50;1843.20;;;;;;4964176;28;20038;-82
2023/02/17 15:15:19;;;;;;;44.28;30.52;;;384.40;1843.20;;;;;;4992091;28;20030;-82
2023/02/17 15:17:45;;;;;;;58.28;34.65;;;384.30;1868.80;;;;;;4959498;28;20490;-82
2023/02/17 15:20:12;;;;;;;49.67;30.83;;;384.30;1868.80;;;;;;4959619;28;20035;-81
2023/02/17 15:22:40;;;;;;;56.70;34.88;;;384.20;1894.40;;;;;;4959570;28;20033;-83
2023/02/17 15:25:15;;;;;;;52.17;32.50;;;384.10;1894.40;;;;;;4992045;28;20066;-79
2023/02/17 15:27:41;;;;;;;60.33;34.00;;;384.00;1894.40;;;;;;4976501;28;20039;-79
2023/02/17 15:30:18;;;;;;;69.60;41.65;;;359.30;1920.00;;;;;;4959609;28;20022;-76
2023/02/17 15:32:45;;;;;;;57.95;35.45;;;359.30;1920.00;;;;;;4959498;28;20086;-75
2023/02/17 15:35:23;;;;;;;59.03;39.65;;;359.00;1920.00;;;;;;4959045;28;20031;-75
2023/02/17 15:37:49;;;;;;;73.20;45.92;;;359.10;1945.60;;;;;;4959074;28;20037;-78
2023/02/17 15:40:22;;;;;;;78.57;57.60;;;359.00;1945.60;;;;;;4959816;28;20031;-80
2023/02/17 15:42:54;;;;;;;128.48;87.32;;;359.00;1945.60;;;;;;4976596;28;20512;-75
2023/02/17 15:45:21;;;;;;;128.00;84.07;;;359.00;1945.60;;;;;;4958907;28;20054;-77
2023/02/17 15:47:48;;;;;;;150.85;93.35;;;358.70;1971.20;;;;;;4957540;28;20106;-80
2023/02/17 15:50:21;;;;;;;151.48;100.00;;;358.80;1971.20;;;;;;4963934;28;20052;-79
2023/02/17 15:52:49;;;;;;;144.70;98.75;;;358.80;1996.80;;;;;;4968098;28;20022;-76
2023/02/17 15:55:16;;;;;;;165.25;111.07;;;358.70;1996.80;;;;;;4971682;28;20061;-78
2023/02/17 15:57:51;;;;;;;165.27;109.07;;;358.60;2022.40;;;;;;4961438;28;20027;-78
2023/02/17 16:00:30;;;;;;;231.38;136.02;;;358.50;2022.40;;;;;;4989659;28;20050;-78
2023/02/17 16:03:13;;;;;;;161.30;100.03;;;358.40;2048.00;;;;;;4968997;28;20031;-79
2023/02/17 16:05:41;;;;;;;132.75;86.60;;;333.70;2048.00;;;;;;4961589;28;20070;-79
2023/02/17 16:08:07;;;;;;;131.15;87.53;;;333.50;2073.60;;;;;;4973212;28;20497;-76
2023/02/17 16:10:34;;;;;;;120.32;75.47;;;333.40;2073.60;;;;;;4965693;28;20022;-79
2023/02/17 16:13:01;;;;;;;111.85;74.38;;;333.30;2073.60;;;;;;4966160;28;20038;-79
2023/02/17 16:15:30;;;;;;;105.10;68.07;;;333.10;2099.20;;;;;;4972977;28;20030;-77
2023/02/17 16:17:57;;;;;;;150.98;99.75;;;333.00;2099.20;;;;;;4978773;28;20056;-81
2023/02/17 16:20:31;;;;;;;150.02;100.45;;;332.90;2124.80;;;;;;4970940;28;20034;-79
2023/02/17 16:22:57;;;;;;;115.43;77.70;;;308.10;2099.20;;;;;;4968881;28;20093;-82
2023/02/17 16:25:24;;;;;;;114.38;77.65;;;308.00;2124.80;;;;;;4962471;28;20058;-80
2023/02/17 16:27:51;;;;;;;103.20;72.50;;;308.00;2124.80;;;;;;4972910;28;20484;-79
2023/02/17 16:30:21;;;;;;;97.60;64.38;;;307.90;2150.40;;;;;;4980830;28;20027;-83
2023/02/17 16:32:46;;;;;;;111.38;75.68;;;307.80;2150.40;;;;;;4967446;28;20034;-82
2023/02/17 16:35:21;;;;;;;106.72;74.63;;;307.70;2124.80;;;;;;4971011;28;20385;-84
2023/02/17 16:38:11;;;;;;;101.57;66.05;;;307.70;2124.80;;;;;;4961273;28;20035;-87
2023/02/17 16:40:46;;;;;;;91.43;61.58;;;307.70;2124.80;;;;;;4978089;28;20470;-86
2023/02/17 16:43:17;;;;;;;94.00;64.78;;;307.50;2150.40;;;;;;4977915;28;20105;-87
2023/02/17 16:45:55;;;;;;;82.43;55.20;;;307.40;2150.40;;;;;;4960257;28;20122;-86
2023/02/17 16:48:23;;;;;;;92.78;61.78;;;307.30;2150.40;;;;;;4964429;28;20041;-85
2023/02/17 16:50:49;;;;;;;94.75;64.78;;;307.20;2176.00;;;;;;4976981;28;20462;-84
2023/02/17 16:53:15;;;;;;;117.65;79.03;;;307.20;2176.00;;;;;;4977374;28;20113;-85
2023/02/17 16:55:41;;;;;;;128.73;90.28;;;282.50;2176.00;;;;;;4961055;28;20062;-83
2023/02/17 16:58:19;;;;;;;170.90;112.53;;;282.50;2176.00;;;;;;4972364;28;20022;-86
2023/02/17 17:00:47;;;;;;;162.93;108.45;;;282.50;2227.20;;;;;;4967693;28;20031;-85
2023/02/17 17:03:13;;;;;;;125.00;84.38;;;282.30;2176.00;;;;;;4964108;28;20142;-81
2023/02/17 17:05:39;;;;;;;95.28;64.68;;;282.30;2176.00;;;;;;4992335;28;20030;-83
2023/02/17 17:08:06;;;;;;;76.32;53.17;;;282.20;2176.00;;;;;;4977950;28;20030;-85
2023/02/17 17:10:33;;;;;;;68.30;43.58;;;282.10;2176.00;;;;;;4964647;28;20029;-86
2023/02/17 17:12:59;;;;;;;44.42;32.40;;;282.00;2278.40;;;;;;4976622;28;20023;-87
2023/02/17 17:15:26;;;;;;;38.33;27.00;;;282.00;2176.00;;;;;;4962463;28;20027;-88
2023/02/17 17:18:01;;;;;;;45.45;31.88;;;281.90;2176.00;;;;;;4960231;28;20035;-85
2023/02/17 17:20:31;;;;;;;45.30;30.75;;;281.80;2278.40;;;;;;4987499;28;20039;-87
2023/02/17 17:22:58;;;;;;;96.05;62.92;;;281.80;2201.60;;;;;;4968979;28;20031;-84
2023/02/17 17:25:25;;;;;;;111.32;74.32;;;281.70;2201.60;;;;;;4979242;28;20557;-85
2023/02/17 17:27:51;;;;;;;146.48;94.20;;;281.60;2227.20;;;;;;4960159;28;20042;-86
2023/02/17 17:30:20;;;;;;;137.43;90.00;;;281.60;2227.20;;;;;;4971199;28;20022;-86
2023/02/17 17:32:45;;;;;;;105.25;68.07;;;256.90;2201.60;;;;;;4967537;28;20019;-85
2023/02/17 17:35:11;;;;;;;108.10;70.07;;;256.90;2201.60;;;;;;4963921;28;20031;-85
2023/02/17 17:37:37;;;;;;;85.18;56.05;;;256.90;2176.00;;;;;;4973312;28;20030;-85
2023/02/17 17:40:04;;;;;;;95.63;63.15;;;256.80;2201.60;;;;;;4981721;28;20033;-88
2023/02/17 17:42:30;;;;;;;153.00;100.30;;;256.70;2227.20;;;;;;4980883;28;20593;-86
2023/02/17 17:44:55;;;;;;;143.80;91.72;;;256.70;2227.20;;;;;;4969739;28;20080;-87
2023/02/17 17:47:21;;;;;;;91.15;61.35;;;256.70;2227.20;;;;;;4975528;28;20182;-86
2023/02/17 17:49:47;;;;;;;109.88;70.97;;;256.60;2252.80;;;;;;4980091;28;20527;-86
2023/02/17 17:52:13;;;;;;;134.35;85.28;;;;;;;;;;4984227;28;20033;-86
2023/02/17 17:54:41;;;;;;;177.52;104.03;;;256.60;2252.80;;;;;;4961682;28;20027;-86
2023/02/17 17:57:07;;;;;;;134.07;86.45;;;256.40;2252.80;;;;;;4973450;28;20543;-84
2023/02/17 17:59:33;;;;;;;136.25;87.97;;;;;;;;;;4964353;28;20525;-86
2023/02/17 18:01:59;;;;;;;128.68;80.43;;;;;;;;;;4945579;28;20018;-82
2023/02/17 18:04:25;;;;;;;128.25;82.18;;;;;;;;;;4971623;28;20015;-91
2023/02/17 18:06:53;;;;;;;119.68;80.78;;;;;;;;;;4983934;28;20102;-94
2023/02/17 18:09:23;;;;;;;176.77;116.38;;;256.20;2252.80;;;;;;4962556;28;20030;-93
2023/02/17 18:11:51;;;;;;;188.38;122.22;;;;;;;;;;4980771;28;20030;-93
2023/02/17 18:14:18;;;;;;;188.60;125.03;;;;;;;;;;4982037;28;20382;-95
2023/02/17 18:16:53;;;;;;;236.65;158.73;;;;;;;;;;4983410;28;20026;-92
2023/02/17 18:19:19;;;;;;;197.15;127.43;;;;;;;;;;4985718;28;20030;-91
2023/02/17 18:21:46;;;;;;;235.85;147.73;;;;;;;;;;4996733;28;20113;-92
2023/02/17 18:24:12;;;;;;;229.73;148.32;;;;;;;;;;5007743;28;20042;-91
2023/02/17 18:26:38;;;;;;;224.00;142.18;;;231.20;2252.80;;;;;;4981869;28;20023;-93
2023/02/17 18:29:04;;;;;;;205.10;132.45;;;231.10;2252.80;;;;;;4981513;28;20045;-94
2023/02/17 18:31:30;;;;;;;195.05;122.32;;;231.00;2252.80;;;;;;4981407;28;20023;-94
2023/02/17 18:33:55;;;;;;;183.48;118.63;;;231.00;2252.80;;;;;;4981721;28;20519;-94
2023/02/17 18:36:24;;;;;;;184.18;125.35;;;231.00;2252.80;;;;;;4981665;28;20113;-93
2023/02/17 18:38:51;;;;;;;257.33;165.82;;;230.90;2252.80;;;;;;4998788;28;20036;-95
2023/02/17 18:41:20;;;;;;;182.27;120.40;;;230.80;2252.80;;;;;;4983285;28;20076;-95
2023/02/17 18:43:46;;;;;;;214.55;140.73;;;230.70;2252.80;;;;;;4981758;28;20061;-95
2023/02/17 18:46:13;;;;;;;212.68;137.27;;;230.70;2252.80;;;;;;4981556;28;20022;-93
2023/02/17 18:48:38;;;;;;;208.90;140.07;;;230.60;2252.80;;;;;;4981031;28;20026;-94
2023/02/17 18:51:12;;;;;;;239.23;151.65;;;;;;;;;;4981033;28;20417;-94
2023/02/17 18:53:38;;;;;;;265.13;175.90;;;;;;;;;;4981321;28;20026;-93
2023/02/17 18:56:09;;;;;;;282.85;179.30;;;;;;;;;;4981651;28;20026;-94
2023/02/17 18:58:35;;;;;;;266.52;170.93;;;;;;;;;;4981557;28;20023;-95
2023/02/17 19:01:01;;;;;;;232.40;153.40;;;;;;;;;;4981439;28;20034;-91
2023/02/17 19:03:28;;;;;;;284.52;194.73;;;;;;;;;;4981709;28;20026;-93
2023/02/17 19:05:54;;;;;;;347.48;221.80;;;;;;;;;;4981553;28;20027;-91
2023/02/17 19:08:20;;;;;;;355.42;222.82;;;;;;;;;;4980854;28;20077;-94
2023/02/17 19:10:46;;;;;;;292.10;190.60;;;;;;;;;;4980852;28;20363;-91
2023/02/17 19:13:13;;;;;;;281.38;186.07;;;;;;;;;;4981193;28;20019;-93
2023/02/17 19:15:39;;;;;;;226.35;150.63;;;;;;;;;;4981015;28;20034;-95
2023/02/17 19:18:05;;;;;;;203.80;136.70;;;;;;;;;;4980485;28;20145;-93
2023/02/17 19:20:31;;;;;;;233.25;154.45;;;;;;;;;;4981172;28;20038;-91
2023/02/17 19:22:57;;;;;;;233.27;155.63;;;205.70;2252.80;;;;;;4980687;28;20022;-93
2023/02/17 19:25:24;;;;;;;231.38;150.82;;;205.50;2252.80;;;;;;4980014;28;20049;-93
2023/02/17 19:27:50;;;;;;;226.35;150.57;;;;;;;;;;4981526;28;20125;-94
2023/02/17 19:30:16;;;;;;;257.80;159.75;;;;;;;;;;4980561;28;20029;-92
2023/02/17 19:32:42;;;;;;;341.30;194.38;;;;;;;;;;4980584;28;20039;-93
2023/02/17 19:35:09;;;;;;;382.17;233.15;;;;;;;;;;4980243;28;20031;-93
2023/02/17 19:37:35;;;;;;;405.17;253.27;;;;;;;;;;4980207;28;20034;-94
2023/02/17 19:40:01;;;;;;;371.05;234.63;;;;;;;;;;4981970;28;20045;-94
2023/02/17 19:42:27;;;;;;;319.52;207.43;;;205.40;2252.80;;;;;;4981462;28;20030;-92
2023/02/17 19:44:53;;;;;;;310.35;203.57;;;;;;;;;;4979951;28;20621;-95
2023/02/17 19:47:19;;;;;;;308.90;201.48;;;205.50;2252.80;;;;;;4979701;28;20382;-92
2023/02/17 19:49:44;;;;;;;321.35;207.93;;;205.30;2252.80;;;;;;4979783;28;20026;-93
2023/02/17 19:52:10;;;;;;;336.50;217.20;;;205.20;2252.80;;;;;;4979565;28;20030;-92
2023/02/17 19:54:36;;;;;;;328.10;211.93;;;;;;;;;;4979485;28;20034;-92
2023/02/17 19:57:02;;;;;;;292.10;191.63;;;;;;;;;;4979630;28;20050;-92
2023/02/17 19:59:30;;;;;;;305.77;200.05;;;;;;;;;;4979401;28;20478;-94
2023/02/17 20:01:56;;;;;;;327.40;220.50;;;205.10;2252.80;;;;;;4979331;28;20065;-92
2023/02/17 20:04:22;;;;;;;389.38;257.30;;;205.00;2252.80;;;;;;4979659;28;20493;-92
2023/02/17 20:06:48;;;;;;;387.25;248.68;;;204.80;2252.80;;;;;;4979548;28;20027;-91
2023/02/17 20:09:17;;;;;;;249.10;161.05;;;180.10;2252.80;;;;;;4979811;28;20026;-94
2023/02/17 20:11:44;;;;;;;238.18;152.57;;;180.10;2252.80;;;;;;4979761;28;20031;-93
2023/02/17 20:14:10;;;;;;;241.48;151.90;;;180.10;2252.80;;;;;;4979404;28;20026;-93
2023/02/17 20:16:36;;;;;;;255.20;161.50;;;180.10;2252.80;;;;;;4979532;28;20094;-90
2023/02/17 20:19:03;;;;;;;264.02;167.60;;;180.10;2252.80;;;;;;4978628;28;20030;-92
2023/02/17 20:21:32;;;;;;;258.08;165.50;;;180.10;2252.80;;;;;;4979278;28;20026;-92
2023/02/17 20:23:58;;;;;;;360.83;238.27;;;180.10;2252.80;;;;;;4979445;28;20047;-94
2023/02/17 20:26:33;;;;;;;357.10;233.02;;;180.10;2252.80;;;;;;4979724;28;20026;-93
2023/02/17 20:28:59;;;;;;;265.92;169.35;;;180.00;2252.80;;;;;;4979652;28;20034;-93
2023/02/17 20:31:25;;;;;;;265.15;172.20;;;180.00;2252.80;;;;;;4979307;28;20039;-92
2023/02/17 20:33:52;;;;;;;264.88;173.23;;;180.00;2252.80;;;;;;4979620;28;20037;-93
2023/02/17 20:36:18;;;;;;;313.73;200.00;;;180.00;2252.80;;;;;;4979686;28;20026;-93
2023/02/17 20:38:44;;;;;;;273.88;177.77;;;179.80;2252.80;;;;;;4980544;28;20150;-93
2023/02/17 20:41:14;;;;;;;268.38;175.60;;;179.80;2252.80;;;;;;4979588;28;20022;-94
2023/02/17 20:43:40;;;;;;;272.38;173.75;;;179.70;2252.80;;;;;;4979662;28;20034;-93
2023/02/17 20:46:05;;;;;;;249.50;161.80;;;179.80;2252.80;;;;;;4979931;28;20026;-93
2023/02/17 20:48:31;;;;;;;266.33;168.63;;;179.60;2252.80;;;;;;4979360;28;20037;-93
2023/02/17 20:50:58;;;;;;;312.73;195.23;;;179.60;2252.80;;;;;;4979903;28;20033;-93
2023/02/17 20:53:25;;;;;;;309.00;189.55;;;179.60;2252.80;;;;;;4979586;28;20054;-94
2023/02/17 20:55:51;;;;;;;270.52;167.95;;;179.60;2252.80;;;;;;4979434;28;20117;-94
2023/02/17 20:58:17;;;;;;;276.52;173.15;;;179.50;2252.80;;;;;;4979793;28;20064;-93
2023/02/17 21:00:43;;;;;;;252.23;152.57;;;179.40;2252.80;;;;;;4978526;28;20046;-93
2023/02/17 21:03:09;;;;;;;211.27;132.93;;;179.40;2252.80;;;;;;4978802;28;20023;-93
2023/02/17 21:05:36;;;;;;;221.70;135.73;;;179.30;2252.80;;;;;;4978956;28;20377;-95